Hebe, Pennsylvania
Current Conditions -  °F | °C
As of 3:53 PM on Tuesday 21 Oct 2014 (Local Time) from KSEG Reporting Station
Broken Clouds Broken Clouds  
Wind Chill: 63°   Ceiling: 3300
Heat Index: 63°   Visibility: 10mi
Dew Point: 47°   Wind: 7mph
Humidity: 56%   Direction: 20°NNE
Pressure: 29.84"   Gusts: NA
Location:  40.6872°N, 76.7831°W
Report Text: KSEG 211953Z AUTO 02006KT 10SM BKN033 17/08 A2984 RMK AO2 SLP103 T01720083
Loading
Personal Weather Stations






























Interactive Weather Map
Tropical Storm Tracking
New forecast layout! Learn more

10-Day Weather Forecast

Advertisements
Track Severe Weather on mobile